首页
METAR-TAF:

METAR-TAF

机场 :

阿克雷里, 冰岛

纬度: 65-41N, 经度: 018-05W, 海拔: 23米

当前天气观测

该预报发布于28分钟前的02:00 UTC
风速3节,风向
温度 9°C
湿度 81%
气压 1009 hPa
能见度10公里或以上
1500米以下无云,无积雨云

METAR: BIAR 140200Z 17003KT CAVOK 09/06 Q1009

时间: 02:28 (02:28 UTC)

预报

该预报发布于3小时和48分钟前的22:40 UTC
预报有效从14日的 00点(UTC)到 15日的 00点(UTC)
风速8节,风向北转西北
能见度10公里或以上
1500米以下无云,无积雨云

TAF: BIAR 132240Z 1400/1500 33008KT CAVOK TX19/1413Z TN08/1406Z

超过4000个机场的气象观测和天气预报(METAR&TAF报告)。

可查询的气象台以黄色和红色小点在地图上表示。

将鼠标移到小点上方,可查看气象台名称。

然后点击查看天气观测和预报。

如需切换地图:点击带黑十字的绿色按钮放大地图;点击带横线的绿色按钮缩小地图;或者点击绿色箭头查看邻近地区的地图。


METAR-TAF: